Terminal Aerodrome Forecast
Issued by NWS Charleston, WV

Current Version | Previous Version | Text Only | Print | Product List | Glossary Off
Versions: 1 2 3 4 5 6 7 8 9 10 11 12 13 14 15 16 17 18 19 20 21 22 23 24 25 26

000
FTUS41 KRLX 222343
TAFPKB
TAF
KPKB 222343Z 2300/2324 00000KT P6SM OVC015
     FM230300 00000KT 4SM BR BKN020
     FM231400 21005KT P6SM VCSH OVC010
     FM231900 20006KT P6SM BKN020
     FM232300 18004KT P6SM BKN040=

USA.gov is the U.S. government's official web portal to all federal, state and local government web resources and services.